createdAt,value
2023-03-08T00:00:38.528Z,1.27
2023-03-08T00:03:06.230Z,1.32
2023-03-08T00:05:34.141Z,1.37
2023-03-08T00:08:01.819Z,1.23
2023-03-08T00:10:31.203Z,1.29
2023-03-08T00:12:58.892Z,1.28
2023-03-08T00:15:26.672Z,1.27
2023-03-08T00:17:54.507Z,1.24
2023-03-08T00:20:22.236Z,1.35
2023-03-08T00:22:50.206Z,1.35
2023-03-08T00:25:18.207Z,1.24
2023-03-08T00:27:47.324Z,1.29
2023-03-08T00:30:15.656Z,1.32
2023-03-08T00:32:43.440Z,1.47
2023-03-08T00:35:11.271Z,1.37
2023-03-08T00:37:42.683Z,1.41
2023-03-08T00:40:11.556Z,1.41
2023-03-08T00:46:02.052Z,1.46
2023-03-08T00:48:33.545Z,1.36
2023-03-08T00:51:01.496Z,1.44
2023-03-08T00:53:29.244Z,1.29
2023-03-08T00:55:58.110Z,1.36
2023-03-08T00:58:27.025Z,1.41
2023-03-08T01:00:54.920Z,1.42
2023-03-08T01:03:22.938Z,1.35
2023-03-08T01:05:53.765Z,1.49
2023-03-08T01:08:23.123Z,1.47
2023-03-08T01:10:51.352Z,1.51
2023-03-08T01:13:20.015Z,1.54
2023-03-08T01:15:48.407Z,1.38
2023-03-08T01:18:16.260Z,1.33
2023-03-08T01:20:44.069Z,1.17
2023-03-08T01:23:13.150Z,1.20
2023-03-08T01:25:40.950Z,1.22
2023-03-08T01:28:08.635Z,1.21
2023-03-08T01:30:36.677Z,1.36
2023-03-08T01:33:27.351Z,1.38
2023-03-08T01:35:55.299Z,1.35
2023-03-08T01:38:24.436Z,1.25
2023-03-08T01:40:56.987Z,1.45
2023-03-08T01:43:26.371Z,1.39
2023-03-08T01:46:06.862Z,1.40
2023-03-08T01:48:38.236Z,1.18
2023-03-08T01:51:08.113Z,1.35
2023-03-08T01:53:37.776Z,1.30
2023-03-08T01:56:06.521Z,1.29
2023-03-08T01:58:35.052Z,1.22
2023-03-08T02:01:02.784Z,1.14
2023-03-08T02:03:30.453Z,1.25
2023-03-08T02:05:58.538Z,1.27
2023-03-08T02:08:26.492Z,1.26
2023-03-08T02:10:55.952Z,1.36
2023-03-08T02:13:23.988Z,1.27
2023-03-08T02:15:55.058Z,1.32
2023-03-08T02:18:22.758Z,1.23
2023-03-08T02:20:50.454Z,1.27
2023-03-08T02:23:21.913Z,1.27
2023-03-08T02:25:53.141Z,1.16
2023-03-08T02:28:21.988Z,1.05
2023-03-08T02:30:50.495Z,1.10
2023-03-08T02:36:04.309Z,1.27
2023-03-08T02:38:33.623Z,1.16
2023-03-08T02:41:01.461Z,1.14
2023-03-08T02:43:29.685Z,1.05
2023-03-08T02:45:57.351Z,1.03
2023-03-08T02:48:25.221Z,1.18
2023-03-08T02:50:52.915Z,1.10
2023-03-08T02:53:20.631Z,1.15
2023-03-08T02:55:49.746Z,1.08
2023-03-08T02:58:17.470Z,1.08
2023-03-08T03:00:45.227Z,0.95
2023-03-08T03:03:12.915Z,0.95
2023-03-08T03:05:44.371Z,0.91
2023-03-08T03:08:12.753Z,0.89
2023-03-08T03:10:41.897Z,0.83
2023-03-08T03:13:11.141Z,0.87
2023-03-08T03:15:39.578Z,0.98
2023-03-08T03:18:07.412Z,0.95
2023-03-08T03:20:35.307Z,0.93
2023-03-08T03:23:03.063Z,0.91
2023-03-08T03:25:30.865Z,0.80
2023-03-08T03:27:58.723Z,0.90
2023-03-08T03:30:27.803Z,0.84
2023-03-08T03:32:55.745Z,0.79
2023-03-08T03:35:23.429Z,0.78
2023-03-08T03:37:51.117Z,0.86
2023-03-08T03:40:18.834Z,0.81
2023-03-08T03:42:46.513Z,0.90
2023-03-08T03:45:14.464Z,0.90
2023-03-08T03:47:43.989Z,0.82
2023-03-08T03:50:12.613Z,0.95
2023-03-08T03:52:40.289Z,0.88
2023-03-08T03:55:09.672Z,0.99
2023-03-08T03:57:37.374Z,1.00
2023-03-08T04:00:07.222Z,1.00
2023-03-08T04:02:34.953Z,0.97
2023-03-08T04:05:04.637Z,0.87
2023-03-08T04:07:32.314Z,0.91
2023-03-08T04:10:00.002Z,0.85
2023-03-08T04:12:27.857Z,0.91
2023-03-08T04:14:55.856Z,0.95
2023-03-08T04:17:23.511Z,0.94
2023-03-08T04:19:51.188Z,0.92
2023-03-08T04:22:20.456Z,1.12
2023-03-08T04:24:48.175Z,1.16
2023-03-08T04:27:31.986Z,1.08
2023-03-08T04:29:59.650Z,1.09
2023-03-08T04:32:27.351Z,1.16
2023-03-08T04:34:55.382Z,1.33
2023-03-08T04:37:25.094Z,1.28
2023-03-08T04:39:52.927Z,1.31
2023-03-08T04:42:20.656Z,1.14
2023-03-08T04:44:48.396Z,1.14
2023-03-08T04:47:16.122Z,1.21
2023-03-08T04:49:43.825Z,1.25
2023-03-08T04:52:11.532Z,1.20
2023-03-08T04:54:40.655Z,1.38
2023-03-08T04:57:08.847Z,1.19
2023-03-08T04:59:37.209Z,1.40
2023-03-08T05:02:05.383Z,1.24
2023-03-08T05:04:33.163Z,1.41
2023-03-08T05:07:00.847Z,1.43
2023-03-08T05:09:28.519Z,1.34
2023-03-08T05:11:58.574Z,1.26
2023-03-08T05:14:26.263Z,1.34
2023-03-08T05:16:56.219Z,1.27
2023-03-08T05:19:24.482Z,1.18
2023-03-08T05:21:52.407Z,1.14
2023-03-08T05:24:20.128Z,1.22
2023-03-08T05:26:48.415Z,1.19
2023-03-08T05:29:17.663Z,1.17
2023-03-08T05:31:46.725Z,1.16
2023-03-08T05:34:14.561Z,1.03
2023-03-08T05:36:42.866Z,1.04
2023-03-08T05:39:12.008Z,1.15
2023-03-08T05:41:39.707Z,1.17
2023-03-08T05:44:07.381Z,1.19
2023-03-08T05:46:58.677Z,1.23
2023-03-08T05:49:26.345Z,1.06
2023-03-08T05:51:54.923Z,1.22
2023-03-08T05:54:23.022Z,1.24
2023-03-08T05:56:50.687Z,1.16
2023-03-08T05:59:18.594Z,1.20
2023-03-08T06:01:47.727Z,1.20
2023-03-08T06:04:15.466Z,1.16
2023-03-08T06:06:43.100Z,1.15
2023-03-08T06:09:10.803Z,1.20
2023-03-08T06:11:38.788Z,1.18
2023-03-08T06:14:06.520Z,1.14
2023-03-08T06:16:34.352Z,1.03
2023-03-08T06:19:04.223Z,0.99
2023-03-08T06:21:31.903Z,1.06
2023-03-08T06:23:59.596Z,1.32
2023-03-08T06:26:27.467Z,1.41
2023-03-08T06:28:55.178Z,1.46
2023-03-08T06:31:22.849Z,1.47
2023-03-08T06:33:50.753Z,1.40
2023-03-08T06:36:32.325Z,1.43
2023-03-08T06:39:00.996Z,1.27
2023-03-08T06:41:29.670Z,1.43
2023-03-08T06:43:57.940Z,1.56
2023-03-08T06:46:25.746Z,1.52
2023-03-08T06:48:54.472Z,1.57
2023-03-08T06:51:22.250Z,1.50
2023-03-08T06:53:51.330Z,1.80
2023-03-08T06:56:19.146Z,1.87
2023-03-08T06:58:46.813Z,1.93
2023-03-08T07:01:15.037Z,2.01
2023-03-08T07:03:44.919Z,2.06
2023-03-08T07:06:12.832Z,2.03
2023-03-08T07:08:40.674Z,2.28
2023-03-08T07:11:16.393Z,2.06
2023-03-08T07:13:44.289Z,2.05
2023-03-08T07:16:13.616Z,2.07
2023-03-08T07:18:41.854Z,2.23
2023-03-08T07:21:18.924Z,2.31
2023-03-08T07:23:46.540Z,2.16
2023-03-08T07:26:14.770Z,2.18
2023-03-08T07:28:43.833Z,2.20
2023-03-08T07:31:12.136Z,2.35
2023-03-08T07:33:39.931Z,2.33
2023-03-08T07:36:08.250Z,2.25
2023-03-08T07:38:35.935Z,2.26
2023-03-08T07:41:03.589Z,2.42
2023-03-08T07:43:31.272Z,2.41
2023-03-08T07:46:03.564Z,2.33
2023-03-08T07:48:31.473Z,2.35
2023-03-08T07:51:03.516Z,2.46
2023-03-08T07:53:31.736Z,2.55
2023-03-08T07:56:00.481Z,2.57
2023-03-08T07:58:28.829Z,2.51
2023-03-08T08:00:56.559Z,2.55
2023-03-08T08:03:43.558Z,2.58
2023-03-08T08:06:11.644Z,2.42
2023-03-08T08:08:59.921Z,2.48
2023-03-08T08:11:27.758Z,2.57
2023-03-08T08:14:16.806Z,2.85
2023-03-08T08:16:44.805Z,2.55
2023-03-08T08:19:14.815Z,2.79
2023-03-08T08:21:42.527Z,2.71
2023-03-08T08:24:10.694Z,3.01
2023-03-08T08:26:38.732Z,2.68
2023-03-08T08:29:06.778Z,2.60
2023-03-08T08:31:34.628Z,2.99
2023-03-08T08:34:03.071Z,2.78
2023-03-08T08:36:32.427Z,2.89
2023-03-08T08:39:00.130Z,3.04
2023-03-08T08:41:32.375Z,2.99
2023-03-08T08:44:00.836Z,3.07
2023-03-08T08:49:43.206Z,2.90
2023-03-08T08:52:12.280Z,3.13
2023-03-08T08:54:40.378Z,3.17
2023-03-08T08:57:08.375Z,3.16
2023-03-08T08:59:36.105Z,2.90
2023-03-08T09:02:03.827Z,3.10
2023-03-08T09:04:31.628Z,3.22
2023-03-08T09:06:59.334Z,3.24
2023-03-08T09:09:46.332Z,3.15
2023-03-08T09:12:14.124Z,3.56
2023-03-08T09:14:41.871Z,3.46
2023-03-08T09:17:09.623Z,3.10
2023-03-08T09:19:37.551Z,3.19
2023-03-08T09:22:05.593Z,3.53
2023-03-08T09:24:33.732Z,3.57
2023-03-08T09:27:03.421Z,3.67
2023-03-08T09:29:31.083Z,3.50
2023-03-08T09:35:20.199Z,3.25
2023-03-08T09:37:47.876Z,3.70
2023-03-08T09:40:24.682Z,3.47
2023-03-08T09:42:54.562Z,3.88
2023-03-08T09:45:26.936Z,3.40
2023-03-08T09:48:27.679Z,3.38
2023-03-08T09:50:57.334Z,3.38
2023-03-08T09:53:28.785Z,3.38
2023-03-08T09:55:58.709Z,3.29
2023-03-08T09:58:34.030Z,3.11
2023-03-08T10:01:11.155Z,3.29
2023-03-08T10:03:55.352Z,3.48
2023-03-08T10:06:30.210Z,3.40
2023-03-08T10:09:02.515Z,3.40
2023-03-08T10:11:33.709Z,3.49
2023-03-08T10:14:07.874Z,3.61
2023-03-08T10:16:38.246Z,3.56
2023-03-08T10:19:08.135Z,3.48
2023-03-08T10:21:39.319Z,3.13
2023-03-08T10:24:18.015Z,3.25
2023-03-08T10:26:45.940Z,3.34
2023-03-08T10:29:15.646Z,3.33
2023-03-08T10:31:47.033Z,3.47
2023-03-08T10:34:16.157Z,3.92
2023-03-08T10:36:52.136Z,3.61
2023-03-08T10:39:20.636Z,3.75
2023-03-08T10:41:49.982Z,3.52
2023-03-08T10:44:33.687Z,3.98
2023-03-08T10:47:18.620Z,3.89
2023-03-08T10:49:47.523Z,3.99
2023-03-08T10:52:25.793Z,4.08
2023-03-08T10:55:03.055Z,3.77
2023-03-08T10:57:31.103Z,3.62
2023-03-08T11:00:05.386Z,4.04
2023-03-08T11:02:33.085Z,3.85
2023-03-08T11:05:01.306Z,4.31
2023-03-08T11:07:51.443Z,4.07
2023-03-08T11:10:21.207Z,4.29
2023-03-08T11:12:48.935Z,3.84
2023-03-08T11:15:20.799Z,4.14
2023-03-08T11:17:55.035Z,3.98
2023-03-08T11:20:27.992Z,4.40
2023-03-08T11:23:05.214Z,3.63
2023-03-08T11:25:40.730Z,3.89
2023-03-08T11:28:21.240Z,3.59
2023-03-08T11:31:00.633Z,4.13
2023-03-08T11:33:41.345Z,4.44
2023-03-08T11:36:13.397Z,4.23
2023-03-08T11:38:41.472Z,4.65
2023-03-08T11:41:18.807Z,4.22
2023-03-08T11:44:00.138Z,4.58
2023-03-08T11:46:31.703Z,4.46
2023-03-08T11:49:11.507Z,4.06
2023-03-08T11:51:43.770Z,4.11
2023-03-08T11:54:17.711Z,4.46
2023-03-08T11:56:48.397Z,4.52
2023-03-08T11:59:21.276Z,4.66
2023-03-08T12:01:53.236Z,4.59
2023-03-08T12:04:26.445Z,4.59
2023-03-08T12:06:56.482Z,4.63
2023-03-08T12:09:28.989Z,4.56
2023-03-08T12:12:03.245Z,4.45
2023-03-08T12:14:32.584Z,4.60
2023-03-08T12:17:06.560Z,4.32
2023-03-08T12:19:39.210Z,4.33
2023-03-08T12:22:26.840Z,4.30
2023-03-08T12:25:00.435Z,4.02
2023-03-08T12:27:30.496Z,4.25
2023-03-08T12:30:04.204Z,3.99
2023-03-08T12:32:34.032Z,4.23
2023-03-08T12:35:04.148Z,4.30
2023-03-08T12:37:32.148Z,4.19
2023-03-08T12:40:03.983Z,4.01
2023-03-08T12:42:34.751Z,4.27
2023-03-08T12:45:15.962Z,4.30
2023-03-08T12:47:56.582Z,3.98
2023-03-08T12:50:25.558Z,4.22
2023-03-08T12:52:53.403Z,4.23
2023-03-08T12:55:44.225Z,4.70
2023-03-08T12:58:17.503Z,4.25
2023-03-08T13:00:45.439Z,4.08
2023-03-08T13:03:29.896Z,4.06
2023-03-08T13:05:57.654Z,4.14
2023-03-08T13:08:33.478Z,4.11
2023-03-08T13:11:05.401Z,4.12
2023-03-08T13:13:50.196Z,4.06
2023-03-08T13:16:30.672Z,3.68
2023-03-08T13:19:10.383Z,3.81
2023-03-08T13:21:41.747Z,3.51
2023-03-08T13:24:14.653Z,3.49
2023-03-08T13:26:58.782Z,3.71
2023-03-08T13:29:33.821Z,4.08
2023-03-08T13:32:07.469Z,4.10
2023-03-08T13:34:36.648Z,3.91
2023-03-08T13:37:04.677Z,4.15
2023-03-08T13:43:29.961Z,4.21
2023-03-08T13:46:02.182Z,4.21
2023-03-08T13:48:31.870Z,4.07
2023-03-08T13:51:01.563Z,4.44
2023-03-08T13:53:31.061Z,4.59
2023-03-08T13:56:00.812Z,4.65
2023-03-08T13:58:33.431Z,4.72
2023-03-08T14:01:03.368Z,4.79
2023-03-08T14:03:33.148Z,4.40
2023-03-08T14:06:02.534Z,4.40
2023-03-08T14:08:30.734Z,4.59
2023-03-08T14:11:00.414Z,4.31
2023-03-08T14:13:32.684Z,4.19
2023-03-08T14:16:02.531Z,4.11
2023-03-08T14:18:33.032Z,4.15
2023-03-08T14:21:06.061Z,4.32
2023-03-08T14:23:37.064Z,4.48
2023-03-08T14:26:04.925Z,4.41
2023-03-08T14:28:41.638Z,4.10
2023-03-08T14:31:26.190Z,4.39
2023-03-08T14:33:59.048Z,4.29
2023-03-08T14:36:30.257Z,4.45
2023-03-08T14:39:30.197Z,4.08
2023-03-08T14:41:48.604Z,4.10
2023-03-08T14:44:21.920Z,3.90
2023-03-08T14:46:58.138Z,3.82
2023-03-08T14:49:28.912Z,3.63
2023-03-08T14:51:58.056Z,3.63
2023-03-08T14:54:32.823Z,3.71
2023-03-08T14:57:03.649Z,3.79
2023-03-08T14:59:31.329Z,3.79
2023-03-08T15:01:59.040Z,3.61
2023-03-08T15:04:26.835Z,3.89
2023-03-08T15:06:55.999Z,3.65
2023-03-08T15:09:26.291Z,3.61
2023-03-08T15:11:57.198Z,3.62
2023-03-08T15:14:24.828Z,3.60
2023-03-08T15:17:22.695Z,3.50
2023-03-08T15:19:50.356Z,3.42
2023-03-08T15:22:18.742Z,3.34
2023-03-08T15:24:47.942Z,3.27
2023-03-08T15:27:16.547Z,3.24
2023-03-08T15:29:44.231Z,3.24
2023-03-08T15:32:11.957Z,2.99
2023-03-08T15:34:40.852Z,3.17
2023-03-08T15:37:12.689Z,3.28
2023-03-08T15:39:40.360Z,3.17
2023-03-08T15:42:09.591Z,3.25
2023-03-08T15:44:37.250Z,3.19
2023-03-08T15:47:05.144Z,3.06
2023-03-08T15:49:32.845Z,3.20
2023-03-08T15:52:00.489Z,3.04
2023-03-08T15:54:28.626Z,3.04
2023-03-08T15:56:56.289Z,2.95
2023-03-08T15:59:25.581Z,2.80
2023-03-08T16:01:53.250Z,2.75
2023-03-08T16:04:21.116Z,2.76
2023-03-08T16:06:48.782Z,2.76
2023-03-08T16:09:16.386Z,2.72
2023-03-08T16:11:44.047Z,2.61
2023-03-08T16:14:17.629Z,2.67
2023-03-08T16:16:46.828Z,2.64
2023-03-08T16:19:14.602Z,2.45
2023-03-08T16:21:42.410Z,2.41
2023-03-08T16:24:10.065Z,2.45
2023-03-08T16:26:37.697Z,2.37
2023-03-08T16:29:05.379Z,2.39
2023-03-08T16:31:33.977Z,2.44
2023-03-08T16:34:04.860Z,2.33
2023-03-08T16:36:32.849Z,2.34
2023-03-08T16:39:00.671Z,2.29
2023-03-08T16:41:30.103Z,2.34
2023-03-08T16:43:58.233Z,2.22
2023-03-08T16:46:26.044Z,2.22
2023-03-08T16:48:55.105Z,1.96
2023-03-08T16:51:25.839Z,2.02
2023-03-08T16:53:53.533Z,1.86
2023-03-08T16:56:22.385Z,1.91
2023-03-08T16:58:50.248Z,1.81
2023-03-08T17:01:19.428Z,1.72
2023-03-08T17:03:47.399Z,1.69
2023-03-08T17:06:17.355Z,1.81
2023-03-08T17:08:46.498Z,1.77
2023-03-08T17:11:17.323Z,1.73
2023-03-08T17:13:50.874Z,1.80
2023-03-08T17:16:19.398Z,1.72
2023-03-08T17:18:47.150Z,1.73
2023-03-08T17:21:14.763Z,1.77
2023-03-08T17:23:42.696Z,1.74
2023-03-08T17:26:13.240Z,1.63
2023-03-08T17:28:41.749Z,1.68
2023-03-08T17:31:10.161Z,1.72
2023-03-08T17:33:38.189Z,1.72
2023-03-08T17:36:06.939Z,1.74
2023-03-08T17:38:35.214Z,1.67
2023-03-08T17:41:05.697Z,1.67
2023-03-08T17:43:35.603Z,1.58
2023-03-08T17:46:05.397Z,1.72
2023-03-08T17:48:33.622Z,1.68
2023-03-08T17:51:04.166Z,1.69
2023-03-08T17:53:32.074Z,1.76
2023-03-08T17:56:01.836Z,1.71
2023-03-08T17:58:29.974Z,1.78
2023-03-08T18:00:59.064Z,1.80
2023-03-08T18:03:26.837Z,1.69
2023-03-08T18:05:54.767Z,1.60
2023-03-08T18:08:22.697Z,1.70
2023-03-08T18:10:53.340Z,1.73
2023-03-08T18:13:21.029Z,1.66
2023-03-08T18:15:50.550Z,1.62
2023-03-08T18:18:20.240Z,1.71
2023-03-08T18:20:47.902Z,1.71
2023-03-08T18:23:15.571Z,1.73
2023-03-08T18:25:43.440Z,1.76
2023-03-08T18:28:11.208Z,1.80
2023-03-08T18:30:39.960Z,1.84
2023-03-08T18:33:07.685Z,1.89
2023-03-08T18:35:36.773Z,1.92
2023-03-08T18:38:04.707Z,1.75
2023-03-08T18:40:32.382Z,1.69
2023-03-08T18:43:00.037Z,1.76
2023-03-08T18:45:27.768Z,1.73
2023-03-08T18:47:55.553Z,1.74
2023-03-08T18:50:25.120Z,1.69
2023-03-08T18:52:54.455Z,1.74
2023-03-08T18:55:22.068Z,1.82
2023-03-08T18:57:49.831Z,1.79
2023-03-08T19:00:18.401Z,1.91
2023-03-08T19:02:46.058Z,1.95
2023-03-08T19:05:13.793Z,1.79
2023-03-08T19:07:42.070Z,1.92
2023-03-08T19:10:14.779Z,1.85
2023-03-08T19:12:44.004Z,1.76
2023-03-08T19:15:12.574Z,1.71
2023-03-08T19:17:40.639Z,1.78
2023-03-08T19:20:09.732Z,1.75
2023-03-08T19:22:39.679Z,1.81
2023-03-08T19:25:08.045Z,1.77
2023-03-08T19:27:37.305Z,1.76
2023-03-08T19:30:05.470Z,1.67
2023-03-08T19:32:33.649Z,1.66
2023-03-08T19:35:03.002Z,1.67
2023-03-08T19:37:31.013Z,1.70
2023-03-08T19:40:00.947Z,1.61
2023-03-08T19:42:29.079Z,1.64
2023-03-08T19:44:58.158Z,1.72
2023-03-08T19:47:26.097Z,1.78
2023-03-08T19:49:53.769Z,1.72
2023-03-08T19:52:21.569Z,1.81
2023-03-08T19:54:49.386Z,1.85
2023-03-08T19:57:17.020Z,1.85
2023-03-08T19:59:44.851Z,1.84
2023-03-08T20:02:14.207Z,1.85
2023-03-08T20:04:42.200Z,1.83
2023-03-08T20:07:09.871Z,1.79
2023-03-08T20:09:37.844Z,1.79
2023-03-08T20:12:05.662Z,1.85
2023-03-08T20:14:33.761Z,1.92
2023-03-08T20:17:01.864Z,1.96
2023-03-08T20:19:32.022Z,1.88
2023-03-08T20:21:59.941Z,1.88
2023-03-08T20:24:27.836Z,1.81
2023-03-08T20:26:55.508Z,1.88
2023-03-08T20:29:23.355Z,1.93
2023-03-08T20:31:51.081Z,1.83
2023-03-08T20:34:18.775Z,1.94
2023-03-08T20:36:47.860Z,1.87
2023-03-08T20:39:15.514Z,2.06
2023-03-08T20:41:43.186Z,1.93
2023-03-08T20:44:11.946Z,1.96
2023-03-08T20:46:39.768Z,2.00
2023-03-08T20:49:07.464Z,2.04
2023-03-08T20:51:36.562Z,1.97
2023-03-08T20:54:06.248Z,2.07
2023-03-08T20:56:33.955Z,2.03
2023-03-08T20:59:02.484Z,2.02
2023-03-08T21:01:32.215Z,1.98
2023-03-08T21:03:59.984Z,1.99
2023-03-08T21:06:30.107Z,2.00
2023-03-08T21:08:58.922Z,2.04
2023-03-08T21:11:28.448Z,1.96
2023-03-08T21:13:56.519Z,1.97
2023-03-08T21:16:26.346Z,2.03
2023-03-08T21:18:55.899Z,1.98
2023-03-08T21:21:25.041Z,1.86
2023-03-08T21:23:54.451Z,1.87
2023-03-08T21:26:23.636Z,1.81
2023-03-08T21:28:53.796Z,1.77
2023-03-08T21:31:21.940Z,1.65
2023-03-08T21:33:49.792Z,1.67
2023-03-08T21:36:18.442Z,1.68
2023-03-08T21:38:46.402Z,1.67
2023-03-08T21:41:18.118Z,1.63
2023-03-08T21:43:45.793Z,1.54
2023-03-08T21:46:15.129Z,1.54
2023-03-08T21:48:43.088Z,1.53
2023-03-08T21:51:11.142Z,1.59
2023-03-08T21:53:38.991Z,1.64
2023-03-08T21:56:08.047Z,1.54
2023-03-08T21:58:35.919Z,1.56
2023-03-08T22:01:03.865Z,1.65
2023-03-08T22:03:33.521Z,1.58
2023-03-08T22:06:01.459Z,1.59
2023-03-08T22:08:29.161Z,1.40
2023-03-08T22:10:56.937Z,1.52
2023-03-08T22:13:24.599Z,1.54
2023-03-08T22:15:52.378Z,1.49
2023-03-08T22:18:20.070Z,1.45
2023-03-08T22:20:56.321Z,1.54
2023-03-08T22:23:24.011Z,1.52
2023-03-08T22:25:51.675Z,1.46
2023-03-08T22:28:19.441Z,1.39
2023-03-08T22:30:47.129Z,1.43
2023-03-08T22:33:14.998Z,1.49
2023-03-08T22:35:45.934Z,1.58
2023-03-08T22:38:15.040Z,1.51
2023-03-08T22:40:42.778Z,1.55
2023-03-08T22:43:11.175Z,1.52
2023-03-08T22:45:38.885Z,1.46
2023-03-08T22:48:07.702Z,1.49
2023-03-08T22:50:35.392Z,1.44
2023-03-08T22:53:03.242Z,1.46
2023-03-08T22:55:32.489Z,1.51
2023-03-08T22:58:00.185Z,1.56
2023-03-08T23:00:27.878Z,1.46
2023-03-08T23:02:57.479Z,1.53
2023-03-08T23:05:25.505Z,1.54
2023-03-08T23:07:53.718Z,1.54
2023-03-08T23:10:21.477Z,1.58
2023-03-08T23:12:50.521Z,1.50
2023-03-08T23:15:18.505Z,1.55
2023-03-08T23:17:46.268Z,1.61
2023-03-08T23:20:14.386Z,1.57
2023-03-08T23:22:44.670Z,1.61
2023-03-08T23:25:12.815Z,1.55
2023-03-08T23:27:40.795Z,1.47
2023-03-08T23:30:15.392Z,1.52
2023-03-08T23:32:43.655Z,1.59
2023-03-08T23:35:12.405Z,1.64
2023-03-08T23:37:40.911Z,1.68
2023-03-08T23:40:11.205Z,1.58
2023-03-08T23:42:39.249Z,1.55
2023-03-08T23:45:08.456Z,1.62
2023-03-08T23:47:37.744Z,1.64
2023-03-08T23:50:06.443Z,1.64
2023-03-08T23:52:34.284Z,1.55
2023-03-08T23:55:02.013Z,1.69
2023-03-08T23:57:30.116Z,1.71
2023-03-08T23:59:58.955Z,1.64
